createdAt,value
2023-03-28T00:01:07.782Z,0.50
2023-03-28T00:03:39.201Z,0.20
2023-03-28T00:06:09.730Z,0.30
2023-03-28T00:08:39.279Z,0.30
2023-03-28T00:11:09.609Z,0.20
2023-03-28T00:13:38.737Z,0.30
2023-03-28T00:16:09.318Z,0.30
2023-03-28T00:18:39.214Z,0.32
2023-03-28T00:21:17.542Z,0.30
2023-03-28T00:23:44.853Z,0.50
2023-03-28T00:26:13.487Z,0.30
2023-03-28T00:28:42.205Z,0.43
2023-03-28T00:31:09.570Z,0.57
2023-03-28T00:33:36.817Z,0.50
2023-03-28T00:36:04.915Z,0.40
2023-03-28T00:38:32.248Z,0.50
2023-03-28T00:40:59.928Z,0.43
2023-03-28T00:43:39.119Z,0.50
2023-03-28T00:46:12.721Z,0.50
2023-03-28T00:48:46.508Z,0.30
2023-03-28T00:51:14.726Z,0.70
2023-03-28T00:53:42.771Z,0.50
2023-03-28T00:56:12.024Z,0.50
2023-03-28T00:58:43.698Z,0.70
2023-03-28T01:01:15.606Z,0.50
2023-03-28T01:03:47.177Z,0.50
2023-03-28T01:06:16.377Z,0.60
2023-03-28T01:08:47.144Z,0.50
2023-03-28T01:11:16.695Z,0.50
2023-03-28T01:13:48.923Z,0.63
2023-03-28T01:16:20.031Z,0.50
2023-03-28T01:18:51.651Z,0.50
2023-03-28T01:21:48.749Z,0.52
2023-03-28T01:24:47.399Z,0.40
2023-03-28T01:27:19.589Z,0.60
2023-03-28T01:30:22.402Z,0.50
2023-03-28T01:33:47.715Z,0.38
2023-03-28T01:36:45.899Z,0.40
2023-03-28T01:39:19.544Z,0.60
2023-03-28T01:41:53.791Z,0.30
2023-03-28T01:44:29.399Z,0.50
2023-03-28T01:47:01.816Z,0.40
2023-03-28T01:49:33.976Z,0.40
2023-03-28T01:52:08.861Z,0.57
2023-03-28T01:54:41.881Z,0.38
2023-03-28T01:57:19.213Z,0.30
2023-03-28T01:59:50.749Z,0.40
2023-03-28T02:02:30.017Z,0.57
2023-03-28T02:05:07.799Z,0.50
2023-03-28T02:07:41.060Z,0.43
2023-03-28T02:10:12.616Z,0.40
2023-03-28T02:13:08.183Z,0.52
2023-03-28T02:15:53.999Z,0.30
2023-03-28T02:18:25.537Z,0.52
2023-03-28T02:21:04.862Z,0.68
2023-03-28T02:23:53.946Z,0.50
2023-03-28T02:26:40.399Z,0.60
2023-03-28T02:29:18.904Z,0.50
2023-03-28T02:31:51.780Z,0.60
2023-03-28T02:34:19.156Z,0.70
2023-03-28T02:36:57.377Z,0.85
2023-03-28T02:39:44.161Z,0.73
2023-03-28T02:42:40.134Z,0.90
2023-03-28T02:45:49.585Z,0.73
2023-03-28T02:48:29.416Z,0.50
2023-03-28T02:51:07.842Z,0.50
2023-03-28T02:53:44.492Z,0.80
2023-03-28T02:56:21.772Z,0.60
2023-03-28T02:59:07.182Z,0.63
2023-03-28T03:01:36.664Z,0.60
2023-03-28T03:04:04.258Z,0.60
2023-03-28T03:06:35.037Z,0.50
2023-03-28T03:09:04.643Z,0.57
2023-03-28T03:11:33.205Z,0.57
2023-03-28T03:14:00.456Z,0.75
2023-03-28T03:16:29.711Z,0.70
2023-03-28T03:18:58.556Z,0.70
2023-03-28T03:21:26.455Z,0.40
2023-03-28T03:23:53.691Z,0.50
2023-03-28T03:26:21.186Z,0.80
2023-03-28T03:29:16.270Z,0.50
2023-03-28T03:31:45.346Z,0.80
2023-03-28T03:34:33.865Z,0.70
2023-03-28T03:37:02.368Z,0.90
2023-03-28T03:39:30.634Z,0.88
2023-03-28T03:41:58.098Z,0.80
2023-03-28T03:44:26.641Z,0.75
2023-03-28T03:46:54.164Z,0.73
2023-03-28T03:49:21.467Z,0.80
2023-03-28T03:51:48.780Z,1.02
2023-03-28T03:54:17.687Z,0.70
2023-03-28T03:56:45.833Z,0.65
2023-03-28T03:59:13.136Z,0.80
2023-03-28T04:01:44.083Z,0.90
2023-03-28T04:04:40.373Z,0.82
2023-03-28T04:07:37.336Z,0.95
2023-03-28T04:10:07.374Z,1.00
2023-03-28T04:12:38.735Z,0.88
2023-03-28T04:15:07.785Z,0.93
2023-03-28T04:17:41.336Z,1.02
2023-03-28T04:20:13.838Z,0.80
2023-03-28T04:23:00.827Z,0.73
2023-03-28T04:25:29.825Z,0.60
2023-03-28T04:28:02.124Z,1.10
2023-03-28T04:30:33.583Z,0.80
2023-03-28T04:33:33.633Z,1.00
2023-03-28T04:36:03.735Z,0.80
2023-03-28T04:38:36.038Z,0.88
2023-03-28T04:41:17.964Z,0.70
2023-03-28T04:44:20.419Z,1.08
2023-03-28T04:46:56.397Z,0.90
2023-03-28T04:49:25.491Z,1.00
2023-03-28T04:51:52.854Z,0.98
2023-03-28T04:54:20.320Z,0.90
2023-03-28T04:56:50.940Z,0.95
2023-03-28T04:59:28.453Z,1.27
2023-03-28T05:01:57.258Z,1.13
2023-03-28T05:04:44.151Z,0.70
2023-03-28T05:07:13.677Z,1.00
2023-03-28T05:09:40.874Z,1.23
2023-03-28T05:12:08.263Z,1.00
2023-03-28T05:14:52.807Z,1.35
2023-03-28T05:17:20.495Z,1.10
2023-03-28T05:20:08.312Z,1.17
2023-03-28T05:22:45.258Z,1.17
2023-03-28T05:25:12.560Z,1.05
2023-03-28T05:27:40.075Z,1.15
2023-03-28T05:30:09.568Z,0.95
2023-03-28T05:32:38.072Z,1.30
2023-03-28T05:35:09.847Z,0.87
2023-03-28T05:37:38.674Z,0.90
2023-03-28T05:40:11.049Z,1.13
2023-03-28T05:42:40.574Z,1.02
2023-03-28T05:45:20.805Z,0.90
2023-03-28T05:48:02.181Z,1.02
2023-03-28T05:50:31.877Z,0.60
2023-03-28T05:53:05.424Z,1.00
2023-03-28T05:55:35.424Z,0.85
2023-03-28T05:58:03.174Z,0.93
2023-03-28T06:00:37.508Z,0.90
2023-03-28T06:03:05.590Z,0.70
2023-03-28T06:05:37.893Z,0.80
2023-03-28T06:08:12.105Z,0.87
2023-03-28T06:10:39.345Z,1.00
2023-03-28T06:13:31.180Z,0.77
2023-03-28T06:15:59.037Z,1.20
2023-03-28T06:18:32.503Z,0.93
2023-03-28T06:21:01.310Z,1.02
2023-03-28T06:23:28.977Z,0.80
2023-03-28T06:25:57.062Z,1.08
2023-03-28T06:28:31.831Z,0.88
2023-03-28T06:31:16.355Z,0.50
2023-03-28T06:33:44.617Z,0.98
2023-03-28T06:36:14.198Z,0.80
2023-03-28T06:38:42.721Z,0.70
2023-03-28T06:41:11.108Z,1.10
2023-03-28T06:43:38.379Z,1.10
2023-03-28T06:46:10.174Z,0.90
2023-03-28T06:48:43.364Z,0.90
2023-03-28T06:51:30.312Z,1.00
2023-03-28T06:53:57.590Z,1.20
2023-03-28T06:56:29.582Z,0.97
2023-03-28T06:58:58.628Z,1.20
2023-03-28T07:01:28.196Z,0.95
2023-03-28T07:04:05.002Z,0.90
2023-03-28T07:06:36.605Z,0.90
2023-03-28T07:09:06.200Z,1.07
2023-03-28T07:11:40.237Z,1.05
2023-03-28T07:14:07.449Z,1.10
2023-03-28T07:16:34.843Z,1.45
2023-03-28T07:19:02.346Z,1.00
2023-03-28T07:21:33.565Z,1.10
2023-03-28T07:24:04.768Z,1.40
2023-03-28T07:26:46.601Z,0.73
2023-03-28T07:29:13.882Z,1.13
2023-03-28T07:31:41.521Z,1.25
2023-03-28T07:34:08.899Z,0.90
2023-03-28T07:36:38.327Z,1.10
2023-03-28T07:39:12.910Z,1.27
2023-03-28T07:41:41.144Z,1.30
2023-03-28T07:44:08.339Z,1.30
2023-03-28T07:46:37.533Z,1.00
2023-03-28T07:49:04.952Z,1.17
2023-03-28T07:51:32.621Z,1.02
2023-03-28T07:53:59.956Z,1.30
2023-03-28T07:56:29.116Z,0.80
2023-03-28T07:59:07.103Z,0.90
2023-03-28T08:01:34.385Z,0.70
2023-03-28T08:04:03.474Z,1.05
2023-03-28T08:06:41.284Z,0.68
2023-03-28T08:09:10.523Z,0.80
2023-03-28T08:11:43.727Z,0.77
2023-03-28T08:14:13.415Z,0.80
2023-03-28T08:16:41.593Z,0.90
2023-03-28T08:19:11.881Z,1.10
2023-03-28T08:22:02.361Z,0.80
2023-03-28T08:24:35.820Z,0.90
2023-03-28T08:27:12.184Z,0.80
2023-03-28T08:29:40.915Z,1.00
2023-03-28T08:32:08.649Z,0.88
2023-03-28T08:34:36.371Z,1.00
2023-03-28T08:37:10.175Z,1.30
2023-03-28T08:39:37.656Z,0.80
2023-03-28T08:42:31.225Z,0.77
2023-03-28T08:45:24.236Z,0.80
2023-03-28T08:47:58.670Z,0.60
2023-03-28T08:50:29.291Z,0.60
2023-03-28T08:52:57.226Z,0.70
2023-03-28T08:55:31.174Z,0.73
2023-03-28T08:58:01.973Z,1.17
2023-03-28T09:00:31.243Z,0.90
2023-03-28T09:02:59.507Z,0.70
2023-03-28T09:05:37.354Z,0.55
2023-03-28T09:08:26.903Z,1.00
2023-03-28T09:11:01.388Z,0.68
2023-03-28T09:13:39.288Z,0.60
2023-03-28T09:16:22.646Z,0.80
2023-03-28T09:19:16.471Z,0.70
2023-03-28T09:22:14.941Z,0.60
2023-03-28T09:24:57.214Z,0.60
2023-03-28T09:27:33.783Z,0.57
2023-03-28T09:30:17.457Z,1.67
2023-03-28T09:32:45.767Z,1.00
2023-03-28T09:35:18.282Z,0.75
2023-03-28T09:37:49.599Z,0.80
2023-03-28T09:40:20.739Z,0.45
2023-03-28T09:43:25.808Z,1.60
2023-03-28T09:46:28.017Z,2.38
2023-03-28T09:49:03.608Z,0.90
2023-03-28T09:51:37.527Z,0.90
2023-03-28T09:54:07.507Z,1.05
2023-03-28T09:56:38.175Z,0.80
2023-03-28T09:59:27.654Z,0.90
2023-03-28T10:01:59.618Z,0.70
2023-03-28T10:04:39.357Z,0.80
2023-03-28T10:07:29.943Z,0.80
2023-03-28T10:10:17.533Z,0.70
2023-03-28T10:12:48.816Z,0.70
2023-03-28T10:15:35.704Z,0.80
2023-03-28T10:18:27.049Z,0.60
2023-03-28T10:21:26.405Z,0.73
2023-03-28T10:24:07.140Z,0.77
2023-03-28T10:26:36.338Z,0.60
2023-03-28T10:29:08.383Z,0.70
2023-03-28T10:31:38.797Z,1.20
2023-03-28T10:34:39.636Z,1.00
2023-03-28T10:37:23.393Z,0.90
2023-03-28T10:40:05.676Z,0.50
2023-03-28T10:42:59.723Z,0.90
2023-03-28T10:45:50.983Z,0.90
2023-03-28T10:48:30.285Z,0.70
2023-03-28T10:51:08.828Z,0.63
2023-03-28T10:53:52.199Z,0.60
2023-03-28T10:56:29.242Z,0.77
2023-03-28T10:59:14.637Z,0.60
2023-03-28T11:01:53.882Z,0.60
2023-03-28T11:04:32.251Z,0.63
2023-03-28T11:07:07.539Z,1.00
2023-03-28T11:10:18.382Z,1.33
2023-03-28T11:13:11.247Z,0.70
2023-03-28T11:15:47.756Z,1.40
2023-03-28T11:18:35.376Z,0.70
2023-03-28T11:21:17.405Z,0.60
2023-03-28T11:23:50.340Z,0.57
2023-03-28T11:26:47.087Z,0.80
2023-03-28T11:29:43.768Z,0.70
2023-03-28T11:32:19.337Z,0.87
2023-03-28T11:34:57.590Z,0.60
2023-03-28T11:37:30.570Z,0.98
2023-03-28T11:40:06.546Z,0.90
2023-03-28T11:42:49.612Z,0.82
2023-03-28T11:45:34.128Z,0.80
2023-03-28T11:48:12.464Z,0.68
2023-03-28T11:50:50.015Z,0.68
2023-03-28T11:53:47.395Z,0.70
2023-03-28T11:56:27.922Z,0.90
2023-03-28T11:59:12.656Z,0.63
2023-03-28T12:01:43.651Z,0.60
2023-03-28T12:04:14.529Z,0.90
2023-03-28T12:06:59.552Z,0.75
2023-03-28T12:09:37.704Z,0.70
2023-03-28T12:12:12.658Z,1.00
2023-03-28T12:14:52.193Z,0.80
2023-03-28T12:17:45.141Z,0.70
2023-03-28T12:20:25.392Z,0.90
2023-03-28T12:22:57.289Z,0.93
2023-03-28T12:25:52.219Z,0.80
2023-03-28T12:28:28.368Z,0.75
2023-03-28T12:31:06.210Z,0.85
2023-03-28T12:33:44.507Z,0.90
2023-03-28T12:36:28.535Z,0.70
2023-03-28T12:39:00.625Z,0.87
2023-03-28T12:41:36.291Z,0.90
2023-03-28T12:44:10.557Z,0.88
2023-03-28T12:46:46.523Z,0.80
2023-03-28T12:49:21.616Z,0.80
2023-03-28T12:51:55.770Z,0.90
2023-03-28T12:54:27.321Z,0.90
2023-03-28T12:57:02.952Z,0.90
2023-03-28T12:59:48.028Z,0.80
2023-03-28T13:02:35.928Z,0.85
2023-03-28T13:05:14.078Z,0.80
2023-03-28T13:07:57.644Z,0.80
2023-03-28T13:10:35.689Z,0.90
2023-03-28T13:13:16.525Z,0.95
2023-03-28T13:16:01.378Z,1.23
2023-03-28T13:18:31.727Z,0.90
2023-03-28T13:21:01.305Z,0.70
2023-03-28T13:23:31.847Z,0.82
2023-03-28T13:26:00.395Z,0.85
2023-03-28T13:28:39.270Z,0.80
2023-03-28T13:31:11.664Z,0.80
2023-03-28T13:33:45.902Z,0.70
2023-03-28T13:36:24.902Z,0.90
2023-03-28T13:39:00.313Z,1.05
2023-03-28T13:41:55.085Z,0.90
2023-03-28T13:44:27.480Z,0.83
2023-03-28T13:46:56.814Z,0.80
2023-03-28T13:49:34.175Z,1.17
2023-03-28T13:52:06.990Z,0.90
2023-03-28T13:54:34.367Z,0.90
2023-03-28T13:57:03.913Z,0.83
2023-03-28T13:59:37.370Z,0.80
2023-03-28T14:02:18.245Z,1.00
2023-03-28T14:04:52.381Z,0.80
2023-03-28T14:07:27.406Z,0.80
2023-03-28T14:09:56.555Z,0.80
2023-03-28T14:12:27.367Z,1.00
2023-03-28T14:14:56.708Z,1.23
2023-03-28T14:17:28.065Z,1.00
2023-03-28T14:19:57.949Z,0.90
2023-03-28T14:22:27.455Z,0.90
2023-03-28T14:24:58.040Z,0.95
2023-03-28T14:27:35.212Z,0.88
2023-03-28T14:30:04.923Z,1.10
2023-03-28T14:32:35.060Z,0.90
2023-03-28T14:35:19.030Z,0.90
2023-03-28T14:37:51.104Z,0.77
2023-03-28T14:40:29.360Z,0.82
2023-03-28T14:43:00.488Z,0.80
2023-03-28T14:45:28.690Z,0.90
2023-03-28T14:47:58.585Z,0.90
2023-03-28T14:50:30.298Z,0.80
2023-03-28T14:53:01.777Z,0.90
2023-03-28T14:55:29.618Z,0.80
2023-03-28T14:57:58.748Z,0.90
2023-03-28T15:00:33.215Z,1.07
2023-03-28T15:03:06.096Z,1.10
2023-03-28T15:05:34.653Z,0.90
2023-03-28T15:08:03.698Z,0.90
2023-03-28T15:10:31.408Z,0.90
2023-03-28T15:13:05.968Z,0.70
2023-03-28T15:15:35.795Z,0.70
2023-03-28T15:18:08.947Z,0.98
2023-03-28T15:20:38.977Z,0.90
2023-03-28T15:23:13.045Z,1.10
2023-03-28T15:25:42.929Z,0.87
2023-03-28T15:28:13.985Z,0.70
2023-03-28T15:30:43.624Z,0.80
2023-03-28T15:33:16.831Z,1.00
2023-03-28T15:35:44.606Z,1.00
2023-03-28T15:38:22.072Z,0.90
2023-03-28T15:40:51.527Z,0.70
2023-03-28T15:43:39.482Z,0.90
2023-03-28T15:46:12.137Z,1.00
2023-03-28T15:48:41.528Z,1.00
2023-03-28T15:51:14.020Z,0.60
2023-03-28T15:53:42.153Z,0.80
2023-03-28T15:56:17.024Z,1.00
2023-03-28T15:58:45.514Z,0.80
2023-03-28T16:01:23.204Z,0.80
2023-03-28T16:04:13.256Z,0.80
2023-03-28T16:06:42.086Z,1.10
2023-03-28T16:09:15.717Z,1.10
2023-03-28T16:11:44.635Z,0.90
2023-03-28T16:14:35.847Z,0.80
2023-03-28T16:17:24.634Z,0.80
2023-03-28T16:20:12.942Z,0.75
2023-03-28T16:22:40.581Z,1.50
2023-03-28T16:25:08.721Z,1.23
2023-03-28T16:27:37.796Z,1.27
2023-03-28T16:30:14.184Z,2.07
2023-03-28T16:32:41.605Z,1.38
2023-03-28T16:35:11.376Z,1.42
2023-03-28T16:37:38.651Z,1.00
2023-03-28T16:40:07.674Z,1.67
2023-03-28T16:42:34.835Z,1.50
2023-03-28T16:45:02.070Z,1.58
2023-03-28T16:47:29.669Z,1.60
2023-03-28T16:49:57.058Z,1.60
2023-03-28T16:52:27.798Z,1.40
2023-03-28T16:54:56.667Z,1.77
2023-03-28T16:57:23.991Z,2.05
2023-03-28T16:59:51.189Z,2.10
2023-03-28T17:02:18.449Z,1.55
2023-03-28T17:04:50.751Z,2.10
2023-03-28T17:07:18.222Z,2.20
2023-03-28T17:09:46.724Z,2.22
2023-03-28T17:12:14.237Z,2.42
2023-03-28T17:14:41.543Z,3.80
2023-03-28T17:17:08.799Z,2.30
2023-03-28T17:19:36.191Z,1.87
2023-03-28T17:22:03.415Z,2.13
2023-03-28T17:24:31.364Z,2.33
2023-03-28T17:27:00.313Z,2.70
2023-03-28T17:29:27.611Z,2.50
2023-03-28T17:31:55.081Z,2.60
2023-03-28T17:34:22.453Z,3.00
2023-03-28T17:36:51.428Z,2.40
2023-03-28T17:39:18.666Z,2.10
2023-03-28T17:41:45.876Z,2.17
2023-03-28T17:44:14.436Z,2.07
2023-03-28T17:46:41.818Z,2.20
2023-03-28T17:49:09.016Z,2.03
2023-03-28T17:51:36.333Z,2.28
2023-03-28T17:54:06.758Z,2.53
2023-03-28T17:56:34.096Z,2.10
2023-03-28T17:59:01.316Z,2.47
2023-03-28T18:01:29.953Z,2.58
2023-03-28T18:03:57.480Z,2.42
2023-03-28T18:06:43.962Z,2.40
2023-03-28T18:09:11.337Z,2.17
2023-03-28T18:11:39.202Z,2.50
2023-03-28T18:14:08.416Z,2.00
2023-03-28T18:16:38.781Z,2.50
2023-03-28T18:19:06.803Z,2.60
2023-03-28T18:21:34.006Z,2.27
2023-03-28T18:24:01.295Z,2.40
2023-03-28T18:26:28.885Z,2.63
2023-03-28T18:28:56.652Z,2.70
2023-03-28T18:31:28.273Z,2.58
2023-03-28T18:33:57.640Z,2.73
2023-03-28T18:36:25.118Z,3.00
2023-03-28T18:38:53.039Z,2.92
2023-03-28T18:41:20.483Z,2.78
2023-03-28T18:43:47.964Z,3.20
2023-03-28T18:46:16.355Z,2.70
2023-03-28T18:48:44.636Z,3.00
2023-03-28T18:51:13.650Z,3.22
2023-03-28T18:53:40.930Z,3.70
2023-03-28T18:56:09.328Z,7.03
2023-03-28T18:58:37.105Z,5.00
2023-03-28T19:01:06.104Z,3.70
2023-03-28T19:03:39.916Z,3.42
2023-03-28T19:06:08.519Z,3.50
2023-03-28T19:08:37.223Z,4.35
2023-03-28T19:11:08.228Z,3.33
2023-03-28T19:13:35.613Z,3.40
2023-03-28T19:16:05.436Z,3.25
2023-03-28T19:18:33.569Z,3.17
2023-03-28T19:21:01.047Z,3.30
2023-03-28T19:23:28.829Z,2.90
2023-03-28T19:25:57.382Z,3.05
2023-03-28T19:28:24.640Z,2.85
2023-03-28T19:30:57.537Z,3.25
2023-03-28T19:33:24.924Z,2.70
2023-03-28T19:35:52.221Z,3.00
2023-03-28T19:38:19.870Z,2.70
2023-03-28T19:40:47.308Z,2.85
2023-03-28T19:43:20.869Z,3.03
2023-03-28T19:45:48.599Z,3.13
2023-03-28T19:48:16.365Z,3.27
2023-03-28T19:50:44.147Z,2.90
2023-03-28T19:53:11.535Z,2.67
2023-03-28T19:55:38.780Z,2.60
2023-03-28T19:58:07.403Z,2.42
2023-03-28T20:00:36.308Z,2.47
2023-03-28T20:03:03.724Z,2.50
2023-03-28T20:05:31.310Z,2.55
2023-03-28T20:07:58.633Z,2.47
2023-03-28T20:10:26.000Z,2.60
2023-03-28T20:12:53.220Z,2.43
2023-03-28T20:15:20.415Z,2.40
2023-03-28T20:17:48.972Z,2.88
2023-03-28T20:20:16.354Z,3.30
2023-03-28T20:22:43.540Z,2.70
2023-03-28T20:25:10.929Z,2.70
2023-03-28T20:27:38.168Z,2.92
2023-03-28T20:30:06.825Z,2.60
2023-03-28T20:32:34.416Z,2.60
2023-03-28T20:35:02.960Z,2.88
2023-03-28T20:37:32.149Z,2.80
2023-03-28T20:40:10.174Z,2.95
2023-03-28T20:42:40.680Z,2.90
2023-03-28T20:45:13.817Z,2.75
2023-03-28T20:47:41.332Z,2.70
2023-03-28T20:50:11.088Z,3.00
2023-03-28T20:52:39.075Z,2.78
2023-03-28T20:55:07.798Z,3.20
2023-03-28T20:57:40.578Z,3.10
2023-03-28T21:00:08.925Z,3.28
2023-03-28T21:02:36.337Z,3.47
2023-03-28T21:05:04.616Z,3.08
2023-03-28T21:07:33.214Z,3.60
2023-03-28T21:10:00.475Z,3.58
2023-03-28T21:12:27.823Z,3.53
2023-03-28T21:14:58.043Z,3.70
2023-03-28T21:17:26.073Z,4.10
2023-03-28T21:19:53.336Z,4.57
2023-03-28T21:22:20.804Z,4.38
2023-03-28T21:24:49.389Z,4.43
2023-03-28T21:27:17.648Z,4.10
2023-03-28T21:29:44.875Z,4.45
2023-03-28T21:32:13.478Z,4.10
2023-03-28T21:34:43.060Z,4.50
2023-03-28T21:37:10.570Z,4.43
2023-03-28T21:39:38.657Z,4.70
2023-03-28T21:42:07.329Z,5.25
2023-03-28T21:44:34.575Z,5.13
2023-03-28T21:47:01.817Z,5.32
2023-03-28T21:49:30.517Z,5.40
2023-03-28T21:51:57.750Z,5.27
2023-03-28T21:54:25.516Z,4.82
2023-03-28T21:56:52.796Z,5.10
2023-03-28T21:59:21.483Z,4.32
2023-03-28T22:01:48.689Z,5.57
2023-03-28T22:04:15.871Z,5.77
2023-03-28T22:06:43.192Z,4.68
2023-03-28T22:09:10.753Z,4.68
2023-03-28T22:11:39.283Z,5.60
2023-03-28T22:14:06.634Z,4.97
2023-03-28T22:16:37.580Z,4.90
2023-03-28T22:19:05.788Z,5.38
2023-03-28T22:21:33.194Z,5.75
2023-03-28T22:24:03.389Z,5.60
2023-03-28T22:26:30.649Z,5.50
2023-03-28T22:28:59.431Z,5.20
2023-03-28T22:31:27.467Z,5.32
2023-03-28T22:33:56.516Z,5.35
2023-03-28T22:36:23.751Z,4.82
2023-03-28T22:38:51.864Z,5.03
2023-03-28T22:41:19.060Z,4.80
2023-03-28T22:43:46.944Z,4.45
2023-03-28T22:46:16.330Z,4.38
2023-03-28T22:48:44.095Z,4.32
2023-03-28T22:51:12.924Z,4.30
2023-03-28T22:53:40.139Z,4.30
2023-03-28T22:56:08.490Z,3.67
2023-03-28T22:58:36.223Z,4.13
2023-03-28T23:01:03.936Z,4.30
2023-03-28T23:03:32.400Z,4.60
2023-03-28T23:06:01.959Z,4.10
2023-03-28T23:08:31.007Z,4.10
2023-03-28T23:10:58.264Z,4.05
2023-03-28T23:13:25.529Z,4.10
2023-03-28T23:15:52.747Z,3.97
2023-03-28T23:18:20.580Z,4.13
2023-03-28T23:20:49.691Z,3.92
2023-03-28T23:23:17.209Z,3.30
2023-03-28T23:25:47.308Z,3.97
2023-03-28T23:28:14.710Z,3.85
2023-03-28T23:30:42.172Z,3.50
2023-03-28T23:33:09.416Z,3.72
2023-03-28T23:35:36.793Z,3.28
2023-03-28T23:38:05.019Z,4.18
2023-03-28T23:40:32.256Z,4.82
2023-03-28T23:43:00.902Z,4.03
2023-03-28T23:45:28.146Z,3.58
2023-03-28T23:47:55.454Z,3.60
2023-03-28T23:50:22.783Z,3.05
2023-03-28T23:52:50.083Z,3.50
2023-03-28T23:55:17.526Z,3.37
2023-03-28T23:57:44.722Z,3.60
